Terminal Aerodrome Forecast
Issued by NWS Memphis, TN

Home | Current Version | Previous Version | Text Only | Print | Product List | Glossary On
Versions: 1 2 3 4 5 6 7 8 9 10 11 12 13 14 15 16
414
FTUS44 KMEG 281130
TAFJBR
TAF
KJBR 281130Z 2812/2912 30006KT P6SM VCSH BKN070
     FM281600 36007KT P6SM VCTS BKN050CB BKN250
      TEMPO 2817/2821 5SM TSRA BKN025CB
     FM290000 04005KT P6SM SCT050 SCT250
     FM290500 03007KT P6SM FEW050=

USA.gov is the U.S. government's official web portal to all federal, state and local government web resources and services.